Coulee Dam, WA (99116)

7:16 AM PDT on September 03, 2015 (GMT -0700)
FDR Estates | | Change Station
CLOSE
Current Station
Personal Weather Station
Location: Grand Coulee, WA
Elevation: 1664 ft
Nearby Weather Stations

Elev 1664 ft 47.93 °N, 118.95 °W | Updated 7 seconds ago

Clear
Clear
47.8 °F
Feels Like 48 °F
N
0.9
Wind Variable Wind from SSE
Gusts 2.0 mph

Today
High -- | Low -- °F
--% Chance of Precip.
Yesterday
High -- | Low -- °F
Precip. -- in
6:16 AM 7:33 PM
Waning Gibbous, 70% visible
Pressure 29.91 in
Visibility 6.0 miles
Clouds Clear
Windchill 48 °F
Dew Point 36 °F
Humidity 64%
Rainfall 0.00 in
Snow Depth Not available.
UV 0 out of 12
Pollen 7.00 out of 12
Air Quality Not available.
Flu Activity Not available.
METAR KOMK 031353Z AUTO 36003KT 6SM HZ CLR 07/M01 A2991 RMK AO2 SLP129 T00671011
Pressure 29.91 in
Visibility 6.0 miles
Clouds Clear
Windchill 48 °F
Dew Point 36 °F
Humidity 64%
Rainfall 0.00 in
Snow Depth Not available.
UV 0 out of 12
Pollen 7.00 out of 12
Air Quality Not available.
Flu Activity Not available.
METAR KOMK 031353Z AUTO 36003KT 6SM HZ CLR 07/M01 A2991 RMK AO2 SLP129 T00671011

10-Day Weather Forecast

×

Almanac

Astronomy

Sep. 03, 2015 Rise Set
Actual Time
Civil Twilight
Nautical Twilight
Astronomical Twilight
Moon
Length of Visible Light
Length of Day
Tomorrow will be .
, % of the Moon is Illuminated

Today's Extremes

State Highs State Lows

Community

WunderPhotos

Upload Photos

1,851,959 photos uploaded!

WunderBlogs® & News

Nearby

Air Quality

  Air Quality AQ Index Pollutant
Not available.

Snow Depth

Station Depth Elevation

Earthquake Activity

City Distance Mag. Time & Date
Minimum magnitude displayed is 2.5.

Coastal Water Temperatures

Place Temperature

Stations

Nearby Weather Stations

Station Location Temp. Windchill Dew Point Humidity Wind Precip. Elev Updated Type